Time;durP1;ratioP1;P1;durP2;ratioP2;P2;SDS_P1;SDS_P2;PMS_P1;PMS_P2;Temp;Humidity;BMP_temperature;BMP_pressure;BME280_temperature;BME280_humidity;BME280_pressure;Samples;Min_cycle;Max_cycle;Signal;HPM_P1;HPM_P2
2021/03/24 00:02:20;;;;;;;4.32;1.30;;;17.80;41.40;;;;;;5006905;28;20155;-81
2021/03/24 00:04:46;;;;;;;2.05;1.20;;;17.80;41.40;;;;;;5023843;28;20205;-81
2021/03/24 00:07:12;;;;;;;1.95;1.20;;;17.80;41.40;;;;;;5007780;28;20147;-82
2021/03/24 00:09:37;;;;;;;2.83;1.10;;;17.80;41.50;;;;;;5023826;28;20159;-81
2021/03/24 00:12:04;;;;;;;2.58;1.42;;;17.80;41.50;;;;;;5023971;28;20159;-81
2021/03/24 00:14:29;;;;;;;2.22;1.55;;;17.80;41.50;;;;;;5023471;28;20194;-81
2021/03/24 00:16:55;;;;;;;2.15;1.38;;;17.80;41.60;;;;;;5023057;28;20154;-81
2021/03/24 00:19:22;;;;;;;3.45;1.48;;;17.80;41.50;;;;;;5041312;28;20676;-81
2021/03/24 00:21:47;;;;;;;2.22;1.30;;;17.80;41.40;;;;;;5041067;28;20261;-82
2021/03/24 00:24:15;;;;;;;3.38;1.20;;;17.80;41.50;;;;;;5022997;28;20178;-81
2021/03/24 00:26:40;;;;;;;4.57;1.27;;;17.80;41.40;;;;;;5040761;28;20598;-81
2021/03/24 00:29:06;;;;;;;2.60;1.30;;;17.70;41.60;;;;;;5022935;28;20165;-81
2021/03/24 00:31:36;;;;;;;3.67;1.45;;;17.70;41.60;;;;;;5040478;28;20235;-81
2021/03/24 00:34:02;;;;;;;1.70;1.13;;;17.70;41.60;;;;;;5041210;28;20696;-81
2021/03/24 00:36:29;;;;;;;2.38;1.10;;;17.70;41.60;;;;;;5040645;28;20610;-81
2021/03/24 00:38:55;;;;;;;2.20;1.50;;;17.80;41.50;;;;;;5022988;28;20626;-82
2021/03/24 00:41:21;;;;;;;3.40;1.08;;;17.70;41.60;;;;;;5040034;28;20190;-81
2021/03/24 00:43:49;;;;;;;3.63;1.60;;;17.70;41.70;;;;;;5023014;28;20686;-81
2021/03/24 00:46:15;;;;;;;3.35;1.42;;;17.80;41.50;;;;;;5041133;28;20610;-81
2021/03/24 00:48:40;;;;;;;1.60;1.23;;;17.70;41.60;;;;;;5007926;28;20169;-81
2021/03/24 00:51:07;;;;;;;2.38;1.40;;;17.70;41.70;;;;;;5026888;28;20618;-82
2021/03/24 00:53:34;;;;;;;2.90;1.27;;;17.70;41.70;;;;;;5026693;28;20159;-81
2021/03/24 00:55:59;;;;;;;2.25;1.25;;;17.70;41.80;;;;;;5011058;28;20209;-81
2021/03/24 00:58:26;;;;;;;2.33;1.35;;;17.70;41.80;;;;;;4994397;28;20163;-82
2021/03/24 01:00:52;;;;;;;1.90;1.30;;;17.70;41.70;;;;;;5027341;28;20245;-81
2021/03/24 01:03:18;;;;;;;3.45;1.30;;;17.60;41.70;;;;;;5027227;28;20155;-81
2021/03/24 01:05:48;;;;;;;1.83;1.40;;;17.70;41.80;;;;;;5010766;28;20205;-81
2021/03/24 01:08:25;;;;;;;1.60;1.30;;;17.60;41.80;;;;;;5027385;28;20289;-82
2021/03/24 01:11:00;;;;;;;3.08;1.40;;;17.60;41.80;;;;;;5009748;28;20531;-81
2021/03/24 01:13:35;;;;;;;3.55;1.60;;;17.60;41.70;;;;;;5025864;28;20177;-81
2021/03/24 01:16:01;;;;;;;2.50;1.58;;;17.60;41.90;;;;;;5026553;28;20165;-81
2021/03/24 01:18:26;;;;;;;2.72;1.27;;;17.60;41.90;;;;;;5027102;28;20241;-81
2021/03/24 01:20:53;;;;;;;1.45;1.20;;;17.60;41.90;;;;;;4993908;28;20622;-81
2021/03/24 01:23:20;;;;;;;2.72;1.27;;;17.60;41.90;;;;;;5010580;28;20222;-81
2021/03/24 01:25:47;;;;;;;2.03;1.05;;;17.60;42.00;;;;;;5009733;28;20151;-81
2021/03/24 01:28:25;;;;;;;2.05;1.25;;;17.60;41.90;;;;;;5010637;28;20150;-81
2021/03/24 01:30:57;;;;;;;2.33;1.20;;;17.60;42.00;;;;;;5010254;28;20174;-81
2021/03/24 01:33:23;;;;;;;1.83;1.23;;;17.60;41.90;;;;;;5010189;28;20561;-81
2021/03/24 01:35:48;;;;;;;2.38;1.40;;;17.60;42.00;;;;;;5010279;28;20155;-81
2021/03/24 01:38:15;;;;;;;3.15;1.50;;;17.60;42.60;;;;;;5010811;28;20175;-81
2021/03/24 01:40:48;;;;;;;2.20;1.33;;;17.60;42.00;;;;;;5010041;28;20569;-81
2021/03/24 01:43:29;;;;;;;4.82;1.67;;;17.60;42.00;;;;;;5026922;28;20155;-81
2021/03/24 01:46:32;;;;;;;1.88;1.25;;;17.60;42.00;;;;;;5044409;28;20155;-82
2021/03/24 01:49:22;;;;;;;4.05;1.48;;;17.60;42.10;;;;;;5044478;28;20567;-81
2021/03/24 01:51:52;;;;;;;2.28;1.40;;;17.60;42.20;;;;;;5021480;28;20187;-81
2021/03/24 01:54:24;;;;;;;1.75;1.27;;;17.50;42.20;;;;;;5026601;28;20158;-81
2021/03/24 01:57:03;;;;;;;1.88;1.55;;;17.50;42.20;;;;;;5010303;28;20147;-81
2021/03/24 01:59:31;;;;;;;2.03;1.50;;;17.50;42.20;;;;;;5025636;28;20198;-81
2021/03/24 02:01:57;;;;;;;2.13;1.35;;;17.50;42.20;;;;;;5026196;28;20601;-80
2021/03/24 02:04:23;;;;;;;3.85;1.52;;;17.50;42.30;;;;;;4993921;28;20246;-81
2021/03/24 02:07:02;;;;;;;1.75;1.35;;;17.50;42.30;;;;;;5010279;28;20178;-81
2021/03/24 02:09:49;;;;;;;2.70;1.50;;;17.50;42.30;;;;;;5026464;28;20687;-81
2021/03/24 02:13:10;;;;;;;2.45;1.10;;;17.50;42.30;;;;;;5027849;28;20155;-81
2021/03/24 02:15:41;;;;;;;1.60;1.50;;;17.50;42.30;;;;;;4944928;29;20614;-81
2021/03/24 02:18:29;;;;;;;3.03;1.48;;;17.50;42.40;;;;;;4928196;29;20182;-80
2021/03/24 02:21:24;;;;;;;1.50;1.20;;;17.50;42.50;;;;;;4927794;29;20205;-81
2021/03/24 02:24:31;;;;;;;2.25;1.50;;;17.50;42.40;;;;;;4925736;29;20202;-81
2021/03/24 02:27:05;;;;;;;1.92;1.30;;;17.50;42.40;;;;;;4942238;29;20170;-81
2021/03/24 02:29:52;;;;;;;2.95;1.42;;;17.50;42.40;;;;;;4928201;29;20351;-81
2021/03/24 02:32:39;;;;;;;2.10;1.40;;;17.50;42.40;;;;;;4912592;29;20657;-81
2021/03/24 02:35:26;;;;;;;2.78;1.55;;;17.50;42.50;;;;;;4928191;29;20170;-81
2021/03/24 02:37:53;;;;;;;1.55;1.33;;;17.50;42.50;;;;;;4929376;29;20182;-81
2021/03/24 02:40:38;;;;;;;2.00;1.60;;;17.40;42.40;;;;;;4912626;29;20209;-81
2021/03/24 02:43:09;;;;;;;1.83;1.15;;;17.50;42.40;;;;;;4928039;29;20174;-81
2021/03/24 02:45:45;;;;;;;1.88;1.38;;;17.40;42.50;;;;;;4944054;29;20218;-80
2021/03/24 02:48:18;;;;;;;2.60;1.30;;;17.40;42.50;;;;;;4944252;29;20166;-82
2021/03/24 02:50:46;;;;;;;2.58;1.50;;;17.40;42.40;;;;;;4953791;28;20215;-83
2021/03/24 02:53:12;;;;;;;2.13;1.50;;;17.40;42.40;;;;;;5025328;28;20269;-81
2021/03/24 02:55:38;;;;;;;4.45;1.73;;;17.40;42.50;;;;;;5009087;28;20250;-81
2021/03/24 02:58:04;;;;;;;1.45;1.35;;;17.40;42.50;;;;;;5008402;28;20331;-81
2021/03/24 03:00:30;;;;;;;2.15;1.38;;;17.40;42.50;;;;;;5008486;28;20218;-81
2021/03/24 03:02:58;;;;;;;1.67;1.30;;;17.40;42.60;;;;;;5025268;28;20163;-81
2021/03/24 03:05:29;;;;;;;2.75;1.50;;;17.40;42.60;;;;;;5025067;28;20239;-81
2021/03/24 03:08:11;;;;;;;2.55;1.55;;;17.40;42.60;;;;;;5025203;28;20158;-81
2021/03/24 03:10:50;;;;;;;1.95;1.50;;;17.40;42.40;;;;;;5007181;28;20187;-81
2021/03/24 03:13:20;;;;;;;2.45;1.40;;;17.40;42.50;;;;;;5008239;28;20154;-81
2021/03/24 03:15:51;;;;;;;2.55;1.70;;;17.40;42.60;;;;;;5008283;28;20185;-81
2021/03/24 03:18:33;;;;;;;2.10;1.30;;;17.40;42.60;;;;;;5025286;28;20152;-81
2021/03/24 03:21:00;;;;;;;2.67;1.52;;;17.40;42.50;;;;;;5008221;28;20221;-81
2021/03/24 03:23:27;;;;;;;3.00;1.50;;;17.40;42.50;;;;;;5004806;28;20258;-81
2021/03/24 03:26:07;;;;;;;1.85;1.40;;;17.40;42.50;;;;;;4988719;28;20175;-81
2021/03/24 03:28:33;;;;;;;1.73;1.30;;;17.40;42.50;;;;;;5025756;28;20157;-81
2021/03/24 03:30:58;;;;;;;1.30;1.20;;;17.40;42.50;;;;;;4991599;28;20191;-81
2021/03/24 03:33:28;;;;;;;2.17;1.50;;;17.40;42.50;;;;;;5024289;28;20210;-81
2021/03/24 03:35:54;;;;;;;2.65;1.38;;;17.40;42.50;;;;;;5024375;28;20151;-81
2021/03/24 03:38:20;;;;;;;4.07;1.70;;;17.40;42.50;;;;;;5007991;28;20573;-81
2021/03/24 03:40:46;;;;;;;2.67;1.48;;;17.40;43.20;;;;;;5007210;28;20585;-81
2021/03/24 03:43:14;;;;;;;2.17;1.35;;;17.40;42.60;;;;;;5007742;28;20159;-81
2021/03/24 03:45:46;;;;;;;2.08;1.50;;;17.40;42.60;;;;;;5007613;28;20167;-81
2021/03/24 03:48:13;;;;;;;3.92;1.40;;;17.40;42.60;;;;;;5024871;28;20159;-81
2021/03/24 03:50:39;;;;;;;2.13;1.48;;;17.40;42.60;;;;;;5007922;28;20598;-81
2021/03/24 03:53:27;;;;;;;2.15;1.40;;;17.40;42.60;;;;;;5007938;28;20167;-81
2021/03/24 03:56:02;;;;;;;1.73;1.30;;;17.40;42.60;;;;;;5042339;28;20213;-81
2021/03/24 03:58:58;;;;;;;1.90;1.63;;;17.40;42.60;;;;;;5024382;28;20177;-81
2021/03/24 04:01:36;;;;;;;2.65;1.42;;;17.40;42.70;;;;;;5041201;28;20190;-80
2021/03/24 04:04:23;;;;;;;3.45;1.33;;;17.40;42.80;;;;;;5024327;28;20217;-81
2021/03/24 04:07:34;;;;;;;1.80;1.27;;;17.30;42.80;;;;;;5022320;28;20155;-80
2021/03/24 04:10:18;;;;;;;2.60;1.38;;;17.30;42.70;;;;;;5040572;28;20162;-81
2021/03/24 04:12:44;;;;;;;3.38;1.40;;;17.30;42.80;;;;;;5023842;28;20151;-81
2021/03/24 04:15:30;;;;;;;1.92;1.20;;;17.40;42.70;;;;;;5023851;28;20155;-81
2021/03/24 04:18:08;;;;;;;2.63;1.20;;;17.40;42.70;;;;;;5004386;28;20173;-81
2021/03/24 04:20:35;;;;;;;1.80;1.45;;;17.40;42.70;;;;;;5023417;28;20190;-81
2021/03/24 04:23:04;;;;;;;1.50;1.27;;;17.40;42.80;;;;;;5044967;28;20222;-81
2021/03/24 04:25:54;;;;;;;1.35;1.25;;;17.40;42.60;;;;;;5030479;28;20147;-81
2021/03/24 04:28:22;;;;;;;2.85;1.40;;;17.40;42.80;;;;;;5012267;28;20261;-81
2021/03/24 04:30:59;;;;;;;2.80;1.25;;;17.40;42.80;;;;;;5013665;28;20181;-81
2021/03/24 04:33:33;;;;;;;2.53;1.40;;;17.40;42.70;;;;;;5030370;28;20151;-81
2021/03/24 04:36:12;;;;;;;3.63;1.40;;;17.40;42.70;;;;;;5029601;28;20256;-81
2021/03/24 04:39:34;;;;;;;1.75;1.42;;;17.40;42.80;;;;;;5030978;28;20181;-81
2021/03/24 04:42:25;;;;;;;3.17;1.23;;;17.30;42.80;;;;;;5035468;28;20198;-81
2021/03/24 04:45:03;;;;;;;2.13;1.50;;;17.40;42.90;;;;;;5030137;28;20167;-81
2021/03/24 04:47:33;;;;;;;2.72;1.17;;;17.30;42.90;;;;;;5013369;28;20185;-81
2021/03/24 04:50:14;;;;;;;1.38;1.17;;;17.30;42.90;;;;;;5030406;28;20256;-81
2021/03/24 04:52:41;;;;;;;1.50;1.23;;;17.30;42.90;;;;;;5029753;28;20154;-81
2021/03/24 04:55:09;;;;;;;1.42;1.20;;;17.30;42.80;;;;;;5029973;28;20155;-81
2021/03/24 04:57:36;;;;;;;2.13;1.30;;;17.30;42.90;;;;;;5014161;28;20167;-81
2021/03/24 05:00:22;;;;;;;2.00;1.42;;;17.30;42.80;;;;;;5029759;28;20269;-82
2021/03/24 05:02:52;;;;;;;3.03;1.40;;;17.40;42.70;;;;;;5029931;28;20166;-81
2021/03/24 05:05:26;;;;;;;1.20;1.00;;;17.40;42.70;;;;;;5012044;28;20198;-81
2021/03/24 05:08:09;;;;;;;1.25;1.15;;;17.50;42.60;;;;;;5029215;28;20174;-80
2021/03/24 05:10:36;;;;;;;2.47;1.50;;;17.50;42.60;;;;;;5030242;28;20171;-81
2021/03/24 05:13:46;;;;;;;2.72;1.40;;;17.60;42.40;;;;;;5048342;28;20190;-81
2021/03/24 05:16:29;;;;;;;1.45;1.23;;;17.50;42.40;;;;;;5030914;28;20265;-81
2021/03/24 05:19:03;;;;;;;1.83;1.35;;;17.60;42.20;;;;;;5030488;28;20169;-82
2021/03/24 05:21:52;;;;;;;1.92;1.30;;;17.60;42.20;;;;;;5030765;28;20214;-81
2021/03/24 05:24:31;;;;;;;2.10;1.50;;;17.60;42.30;;;;;;5047977;28;20183;-81
2021/03/24 05:27:19;;;;;;;2.63;1.40;;;17.60;42.50;;;;;;5030341;28;20181;-82
2021/03/24 05:29:50;;;;;;;2.10;1.38;;;17.60;42.50;;;;;;5030044;28;20179;-81
2021/03/24 05:32:26;;;;;;;2.20;1.23;;;17.60;42.50;;;;;;5016222;28;20157;-81
2021/03/24 05:34:55;;;;;;;1.88;1.25;;;17.70;42.10;;;;;;5027576;28;20146;-82
2021/03/24 05:37:28;;;;;;;1.58;1.23;;;17.70;42.10;;;;;;5010133;28;20154;-81
2021/03/24 05:40:08;;;;;;;1.65;1.30;;;17.70;42.30;;;;;;5028568;28;20183;-82
2021/03/24 05:42:52;;;;;;;1.95;1.40;;;17.60;42.30;;;;;;4993738;28;20173;-81
2021/03/24 05:45:47;;;;;;;1.95;1.23;;;17.60;42.50;;;;;;5008231;28;20173;-82
2021/03/24 05:48:45;;;;;;;1.25;1.15;;;17.60;42.50;;;;;;5024947;28;20163;-81
2021/03/24 05:51:34;;;;;;;2.45;1.40;;;17.60;42.30;;;;;;5025591;28;20610;-81
2021/03/24 05:54:41;;;;;;;2.08;1.60;;;17.60;42.30;;;;;;5039256;28;20158;-82
2021/03/24 05:57:44;;;;;;;1.88;1.40;;;17.60;42.30;;;;;;5025177;28;20151;-82
2021/03/24 06:00:24;;;;;;;1.65;1.42;;;17.60;42.20;;;;;;5039127;28;20190;-81
2021/03/24 06:03:28;;;;;;;2.28;1.60;;;17.60;42.30;;;;;;5021966;28;20174;-81
2021/03/24 06:06:04;;;;;;;1.85;1.58;;;17.60;42.30;;;;;;5038880;28;20208;-81
2021/03/24 06:08:52;;;;;;;1.45;1.35;;;17.60;43.10;;;;;;5021096;28;20672;-82
2021/03/24 06:11:32;;;;;;;2.20;1.50;;;17.60;42.60;;;;;;5039000;28;20222;-81
2021/03/24 06:14:31;;;;;;;3.05;1.50;;;17.60;42.60;;;;;;5021460;28;20668;-81
2021/03/24 06:17:23;;;;;;;1.40;1.30;;;17.60;42.40;;;;;;5034727;28;20183;-82
2021/03/24 06:20:28;;;;;;;1.52;1.38;;;17.60;42.50;;;;;;5004230;28;20681;-82
2021/03/24 06:22:56;;;;;;;2.00;1.30;;;17.60;42.50;;;;;;4977373;28;20232;-81
2021/03/24 06:25:36;;;;;;;1.67;1.35;;;17.60;42.50;;;;;;4977387;28;20184;-81
2021/03/24 06:28:09;;;;;;;2.53;1.63;;;17.60;42.50;;;;;;4978479;28;20185;-81
2021/03/24 06:30:39;;;;;;;1.42;1.33;;;17.60;42.40;;;;;;4963814;28;20337;-81
2021/03/24 06:33:17;;;;;;;1.95;1.50;;;17.60;42.40;;;;;;4963440;28;20240;-81
2021/03/24 06:35:54;;;;;;;2.17;1.60;;;17.70;42.40;;;;;;4962968;28;20189;-81
2021/03/24 06:38:42;;;;;;;1.63;1.40;;;17.60;42.30;;;;;;4963531;28;20161;-81
2021/03/24 06:41:40;;;;;;;1.42;1.33;;;17.70;42.30;;;;;;4962794;28;20229;-81
2021/03/24 06:44:51;;;;;;;1.90;1.45;;;17.60;42.40;;;;;;4979375;28;20165;-81
2021/03/24 06:47:26;;;;;;;2.72;1.77;;;17.60;42.60;;;;;;4964307;28;20758;-82
2021/03/24 06:50:13;;;;;;;1.73;1.30;;;17.60;42.60;;;;;;4978784;28;20165;-81
2021/03/24 06:53:01;;;;;;;1.67;1.52;;;17.60;42.50;;;;;;4978298;28;20268;-82
2021/03/24 06:56:04;;;;;;;2.00;1.50;;;17.60;42.40;;;;;;4977953;28;20212;-82
2021/03/24 06:58:57;;;;;;;2.42;1.60;;;17.60;42.40;;;;;;4901535;29;20227;-81
2021/03/24 07:01:51;;;;;;;1.88;1.38;;;17.60;42.30;;;;;;4956460;29;20197;-82
2021/03/24 07:04:32;;;;;;;1.85;1.52;;;17.70;42.40;;;;;;4957582;29;20161;-81
2021/03/24 07:07:12;;;;;;;1.65;1.20;;;17.60;42.50;;;;;;4941847;29;20529;-82
2021/03/24 07:09:46;;;;;;;2.00;1.40;;;17.60;42.60;;;;;;4960486;29;20212;-81
2021/03/24 07:12:32;;;;;;;1.88;1.45;;;17.60;42.50;;;;;;4944700;29;20162;-82
2021/03/24 07:15:03;;;;;;;1.77;1.40;;;17.60;42.50;;;;;;4941767;29;20192;-81
2021/03/24 07:17:56;;;;;;;1.55;1.45;;;17.60;43.20;;;;;;4939936;29;20173;-82
2021/03/24 07:20:59;;;;;;;2.70;1.55;;;17.70;42.50;;;;;;4938797;29;20233;-81
2021/03/24 07:23:35;;;;;;;1.92;1.33;;;17.70;42.30;;;;;;4937649;29;20225;-82
2021/03/24 07:26:01;;;;;;;1.63;1.50;;;17.70;42.40;;;;;;4937633;29;20173;-83
2021/03/24 07:28:47;;;;;;;1.55;1.40;;;17.70;42.50;;;;;;4954060;29;20598;-82
2021/03/24 07:31:40;;;;;;;1.50;1.30;;;17.70;42.60;;;;;;4937531;29;20254;-81
2021/03/24 07:34:27;;;;;;;1.50;1.30;;;17.70;42.70;;;;;;4937691;29;20178;-81
2021/03/24 07:37:37;;;;;;;2.28;1.60;;;17.70;42.50;;;;;;5034365;28;20238;-81
2021/03/24 07:40:09;;;;;;;1.80;1.55;;;17.70;42.70;;;;;;5034138;28;20277;-81
2021/03/24 07:43:10;;;;;;;3.47;1.80;;;17.70;42.70;;;;;;5016397;28;20533;-81
2021/03/24 07:45:56;;;;;;;1.50;1.25;;;17.60;42.70;;;;;;4941289;29;20191;-81
2021/03/24 07:48:58;;;;;;;2.63;1.35;;;17.70;42.60;;;;;;4924349;29;20264;-81
2021/03/24 07:51:26;;;;;;;1.58;1.40;;;17.70;42.60;;;;;;4903226;29;20278;-81
2021/03/24 07:54:30;;;;;;;1.70;1.50;;;17.60;42.60;;;;;;4953230;29;20170;-81
2021/03/24 07:57:30;;;;;;;3.83;1.42;;;17.60;42.70;;;;;;4908109;29;20216;-81
2021/03/24 08:00:09;;;;;;;2.05;1.40;;;17.70;42.70;;;;;;4918606;29;20308;-82
2021/03/24 08:02:53;;;;;;;1.67;1.55;;;17.70;42.60;;;;;;4917703;29;20296;-82
2021/03/24 08:05:21;;;;;;;3.30;1.73;;;17.70;42.60;;;;;;4920075;29;20158;-82
2021/03/24 08:08:11;;;;;;;3.00;1.77;;;17.80;42.30;;;;;;4937704;29;20174;-82
2021/03/24 08:10:49;;;;;;;3.05;1.85;;;17.90;42.40;;;;;;4938413;29;20193;-82
2021/03/24 08:13:33;;;;;;;2.20;1.58;;;17.80;42.40;;;;;;4937347;29;20189;-81
2021/03/24 08:16:11;;;;;;;2.78;2.00;;;17.90;42.30;;;;;;4936960;29;20194;-82
2021/03/24 08:18:40;;;;;;;2.38;1.83;;;17.90;42.50;;;;;;4937682;29;20621;-81
2021/03/24 08:21:14;;;;;;;1.65;1.50;;;17.90;42.20;;;;;;4939665;29;20194;-81
2021/03/24 08:24:00;;;;;;;2.63;1.88;;;17.90;42.10;;;;;;5028405;28;20590;-81
2021/03/24 08:27:06;;;;;;;2.20;1.80;;;18.00;42.10;;;;;;5020067;28;20162;-82
2021/03/24 08:29:44;;;;;;;2.58;1.90;;;18.00;41.90;;;;;;5036095;28;20155;-82
2021/03/24 08:32:42;;;;;;;2.53;1.90;;;18.00;41.90;;;;;;5018893;28;20226;-82
2021/03/24 08:35:29;;;;;;;2.95;1.83;;;18.10;41.90;;;;;;5035793;28;20155;-82
2021/03/24 08:38:21;;;;;;;2.10;1.70;;;18.00;41.80;;;;;;5036934;28;20621;-82
2021/03/24 08:41:01;;;;;;;2.55;1.90;;;18.00;41.90;;;;;;5035639;28;20649;-82
2021/03/24 08:43:38;;;;;;;2.60;1.92;;;18.00;41.90;;;;;;5018864;28;20586;-82
2021/03/24 08:46:27;;;;;;;3.47;1.80;;;18.10;42.00;;;;;;5018625;28;20549;-82
2021/03/24 08:49:13;;;;;;;2.65;2.08;;;18.00;42.10;;;;;;5019738;28;20159;-82
2021/03/24 08:51:54;;;;;;;2.55;1.83;;;18.10;42.00;;;;;;5019902;28;20171;-81
2021/03/24 08:54:55;;;;;;;3.10;2.10;;;18.00;42.10;;;;;;4990799;28;20167;-82
2021/03/24 08:57:43;;;;;;;3.47;2.47;;;18.00;42.30;;;;;;5038914;28;20166;-82
2021/03/24 09:00:19;;;;;;;2.88;2.20;;;18.00;42.20;;;;;;5039481;28;20195;-82
2021/03/24 09:03:11;;;;;;;2.63;1.90;;;18.00;42.10;;;;;;5027364;28;20607;-81
2021/03/24 09:06:01;;;;;;;3.20;2.40;;;18.00;42.30;;;;;;5039615;28;20554;-81
2021/03/24 09:08:38;;;;;;;3.45;1.77;;;18.00;42.10;;;;;;5021157;28;20159;-83
2021/03/24 09:11:16;;;;;;;2.42;2.03;;;18.00;42.10;;;;;;5024143;28;20535;-81
2021/03/24 09:13:44;;;;;;;3.47;1.90;;;18.10;42.10;;;;;;5040832;28;20166;-81
2021/03/24 09:16:48;;;;;;;3.22;2.30;;;18.10;42.20;;;;;;5024100;28;20555;-82
2021/03/24 09:19:21;;;;;;;2.75;2.13;;;18.10;42.00;;;;;;5042634;28;20174;-82
2021/03/24 09:22:02;;;;;;;2.65;2.08;;;18.20;42.00;;;;;;5022001;28;20227;-81
2021/03/24 09:24:56;;;;;;;3.20;2.10;;;18.10;42.10;;;;;;5036451;28;20155;-82
2021/03/24 09:27:53;;;;;;;2.90;2.33;;;18.10;42.50;;;;;;5024900;28;20201;-82
2021/03/24 09:30:22;;;;;;;3.35;2.22;;;18.10;42.50;;;;;;5028894;28;20217;-82
2021/03/24 09:33:16;;;;;;;4.55;2.20;;;18.10;42.60;;;;;;5046253;28;20203;-81
2021/03/24 09:35:42;;;;;;;2.90;2.13;;;18.10;42.50;;;;;;5046000;28;20156;-81
2021/03/24 09:38:34;;;;;;;4.78;2.42;;;18.20;42.30;;;;;;5011522;28;20159;-82
2021/03/24 09:41:24;;;;;;;2.75;2.00;;;18.20;42.30;;;;;;5008268;28;20544;-81
2021/03/24 09:44:01;;;;;;;2.63;2.00;;;18.20;42.40;;;;;;5026362;28;20158;-81
2021/03/24 09:46:27;;;;;;;3.25;2.30;;;18.30;41.90;;;;;;5025133;28;20189;-81
2021/03/24 09:48:58;;;;;;;2.58;2.10;;;18.20;42.10;;;;;;5043837;28;20508;-82
2021/03/24 09:51:39;;;;;;;3.20;2.40;;;18.30;42.10;;;;;;5025328;28;20182;-82
2021/03/24 09:54:25;;;;;;;2.80;2.00;;;18.30;42.10;;;;;;5008098;28;20163;-81
2021/03/24 09:57:09;;;;;;;5.20;2.70;;;18.30;42.10;;;;;;5004395;28;20209;-81
2021/03/24 09:59:36;;;;;;;3.25;2.35;;;18.30;42.20;;;;;;5004491;28;20241;-81
2021/03/24 10:02:08;;;;;;;4.70;2.40;;;18.30;42.30;;;;;;5005766;28;20187;-81
2021/03/24 10:04:54;;;;;;;5.28;2.72;;;18.30;42.40;;;;;;5005145;28;20152;-82
2021/03/24 10:07:25;;;;;;;5.20;2.40;;;18.30;42.20;;;;;;5003852;28;20187;-82
2021/03/24 10:09:53;;;;;;;4.45;2.65;;;18.30;42.60;;;;;;5021037;28;20259;-82
2021/03/24 10:12:22;;;;;;;4.60;2.58;;;18.30;42.40;;;;;;5019724;28;20151;-82
2021/03/24 10:14:58;;;;;;;5.97;2.67;;;18.30;42.50;;;;;;5029727;28;20246;-81
2021/03/24 10:17:47;;;;;;;5.93;2.70;;;18.30;42.40;;;;;;5040433;28;20159;-81
2021/03/24 10:20:25;;;;;;;7.82;2.80;;;18.40;42.30;;;;;;5024985;28;20234;-80
2021/03/24 10:23:01;;;;;;;14.75;3.22;;;18.40;42.20;;;;;;5008311;28;20766;-80
2021/03/24 10:25:58;;;;;;;10.50;3.15;;;18.40;42.30;;;;;;5001843;28;20156;-80
2021/03/24 10:28:48;;;;;;;8.55;3.30;;;18.40;42.30;;;;;;5022607;28;20713;-81
2021/03/24 10:31:20;;;;;;;12.50;3.10;;;18.40;42.10;;;;;;4930906;29;20639;-80
2021/03/24 10:34:20;;;;;;;10.32;3.10;;;18.30;42.30;;;;;;4932158;29;20269;-81
2021/03/24 10:36:55;;;;;;;13.02;3.00;;;18.30;42.30;;;;;;4948406;29;20189;-80
2021/03/24 10:39:30;;;;;;;8.18;3.00;;;18.30;42.10;;;;;;4948563;29;20165;-81
2021/03/24 10:42:28;;;;;;;6.65;3.00;;;18.30;42.30;;;;;;4961534;29;20189;-83
2021/03/24 10:45:20;;;;;;;7.78;3.17;;;18.20;42.50;;;;;;4869957;29;20188;-81
2021/03/24 10:48:07;;;;;;;6.40;3.22;;;18.20;42.50;;;;;;4872066;29;20230;-81
2021/03/24 10:51:12;;;;;;;6.63;3.20;;;18.20;42.30;;;;;;4870529;29;20217;-81
2021/03/24 10:54:06;;;;;;;7.18;3.05;;;18.20;42.30;;;;;;4834095;29;20177;-81
2021/03/24 10:57:10;;;;;;;6.30;3.25;;;18.20;42.20;;;;;;4844637;29;20198;-81
2021/03/24 11:00:15;;;;;;;7.82;3.42;;;18.20;42.20;;;;;;4834067;29;20189;-81
2021/03/24 11:03:13;;;;;;;5.53;3.20;;;18.20;42.20;;;;;;4832721;29;20197;-80
2021/03/24 11:05:50;;;;;;;10.68;3.20;;;18.20;42.10;;;;;;4834396;29;20688;-81
2021/03/24 11:08:18;;;;;;;5.45;3.25;;;18.20;42.20;;;;;;4862014;29;20256;-80
2021/03/24 11:10:48;;;;;;;8.65;3.30;;;18.20;42.10;;;;;;4887679;29;20288;-80
2021/03/24 11:13:49;;;;;;;7.55;3.47;;;18.30;42.10;;;;;;4890578;29;20188;-79
2021/03/24 11:17:01;;;;;;;8.82;3.67;;;18.30;42.00;;;;;;4852705;29;20783;-80
2021/03/24 11:19:31;;;;;;;5.00;3.47;;;18.20;42.10;;;;;;4799112;29;20531;-81
2021/03/24 11:22:16;;;;;;;6.80;3.55;;;18.20;42.10;;;;;;4842305;29;20256;-82
2021/03/24 11:25:02;;;;;;;6.00;3.30;;;18.10;42.10;;;;;;4901985;29;20186;-80
2021/03/24 11:28:07;;;;;;;6.95;3.58;;;18.20;42.00;;;;;;4912781;29;20188;-80
2021/03/24 11:31:05;;;;;;;5.03;3.50;;;18.20;42.10;;;;;;4929376;29;20194;-81
2021/03/24 11:33:54;;;;;;;4.65;3.28;;;18.20;42.00;;;;;;4927601;29;20187;-80
2021/03/24 11:36:26;;;;;;;9.23;3.92;;;18.30;41.80;;;;;;4913518;29;20178;-80
2021/03/24 11:38:56;;;;;;;6.30;3.88;;;18.30;41.80;;;;;;4913441;29;20483;-80
2021/03/24 11:41:30;;;;;;;5.55;3.60;;;18.20;42.00;;;;;;4911214;29;20229;-81
2021/03/24 11:44:03;;;;;;;5.72;3.38;;;18.20;42.00;;;;;;4911470;29;20195;-81
2021/03/24 11:46:36;;;;;;;8.13;4.00;;;18.20;42.10;;;;;;4910077;29;20194;-80
2021/03/24 11:49:21;;;;;;;6.55;3.60;;;18.20;41.90;;;;;;4913544;28;20163;-81
2021/03/24 11:52:25;;;;;;;7.47;4.00;;;18.20;41.80;;;;;;4968698;28;20200;-80
2021/03/24 11:55:21;;;;;;;8.65;3.85;;;18.30;41.80;;;;;;5028605;28;20174;-80
2021/03/24 11:58:23;;;;;;;5.55;3.92;;;18.20;41.80;;;;;;5028063;28;20177;-81
2021/03/24 12:01:02;;;;;;;6.13;4.25;;;18.30;41.90;;;;;;5028185;28;20649;-80
2021/03/24 12:04:03;;;;;;;7.35;4.10;;;18.20;42.00;;;;;;5027767;28;20526;-81
2021/03/24 12:06:58;;;;;;;6.53;4.20;;;18.20;41.80;;;;;;5027377;28;20178;-82
2021/03/24 12:09:28;;;;;;;6.75;3.88;;;18.20;41.80;;;;;;5027074;28;20151;-81
2021/03/24 12:12:15;;;;;;;7.47;4.63;;;18.30;41.70;;;;;;5010583;28;20216;-81
2021/03/24 12:14:44;;;;;;;8.57;4.25;;;18.30;41.80;;;;;;5010202;28;20167;-81
2021/03/24 12:17:31;;;;;;;7.38;4.00;;;18.30;41.60;;;;;;5009208;28;20166;-81
2021/03/24 12:20:19;;;;;;;5.43;4.15;;;18.40;41.50;;;;;;5027142;28;20203;-81
2021/03/24 12:23:03;;;;;;;5.97;4.03;;;18.30;41.60;;;;;;5023580;28;20249;-81
2021/03/24 12:25:30;;;;;;;5.07;4.00;;;18.40;41.60;;;;;;5010345;28;20167;-81
2021/03/24 12:28:03;;;;;;;5.72;4.25;;;18.30;41.50;;;;;;5025954;28;20158;-82
2021/03/24 12:30:48;;;;;;;6.18;4.00;;;18.40;41.50;;;;;;5025139;28;20214;-81
2021/03/24 12:33:24;;;;;;;6.72;4.13;;;18.40;41.60;;;;;;5009763;28;20162;-81
2021/03/24 12:36:19;;;;;;;6.43;4.50;;;18.30;41.60;;;;;;5008141;28;20221;-80
2021/03/24 12:39:02;;;;;;;10.13;4.78;;;18.20;41.70;;;;;;5019629;28;20296;-81
2021/03/24 12:41:38;;;;;;;6.75;5.05;;;18.20;41.80;;;;;;5039020;28;20182;-80
2021/03/24 12:44:25;;;;;;;6.85;4.30;;;18.20;41.70;;;;;;5008187;28;20170;-81
2021/03/24 12:46:57;;;;;;;6.53;4.30;;;18.30;41.70;;;;;;5048688;28;20173;-80
2021/03/24 12:49:33;;;;;;;6.95;4.68;;;18.20;41.70;;;;;;5011700;28;20194;-79
2021/03/24 12:52:09;;;;;;;6.10;4.05;;;18.30;41.70;;;;;;5029564;28;20250;-80
2021/03/24 12:54:35;;;;;;;7.70;4.60;;;18.30;41.70;;;;;;5028987;28;20205;-80
2021/03/24 12:57:30;;;;;;;5.43;4.25;;;18.20;41.70;;;;;;5013156;28;20163;-79
2021/03/24 13:00:03;;;;;;;7.38;4.50;;;18.30;41.70;;;;;;5047251;28;20217;-81
2021/03/24 13:02:46;;;;;;;7.22;4.53;;;18.40;41.60;;;;;;5030456;28;20167;-81
2021/03/24 13:05:39;;;;;;;5.88;4.35;;;18.40;41.60;;;;;;5046106;28;20209;-82
2021/03/24 13:08:48;;;;;;;6.28;4.70;;;18.30;41.60;;;;;;5014899;28;20167;-82
2021/03/24 13:11:27;;;;;;;6.50;4.55;;;18.40;41.60;;;;;;4991245;28;20659;-82
2021/03/24 13:14:08;;;;;;;9.35;5.25;;;18.40;41.40;;;;;;4972200;28;20172;-81
2021/03/24 13:17:13;;;;;;;7.20;4.60;;;18.50;41.60;;;;;;5000985;28;20218;-81
2021/03/24 13:19:52;;;;;;;7.90;5.13;;;18.40;41.60;;;;;;4907173;29;20214;-82
2021/03/24 13:22:25;;;;;;;6.68;4.43;;;18.40;41.60;;;;;;4904876;29;20234;-82
2021/03/24 13:25:07;;;;;;;7.63;4.82;;;18.50;41.60;;;;;;4904126;29;20191;-81
2021/03/24 13:27:49;;;;;;;6.50;4.72;;;18.50;41.50;;;;;;4906820;29;20191;-79
2021/03/24 13:30:18;;;;;;;6.30;4.65;;;18.50;41.40;;;;;;4910150;29;20195;-80
2021/03/24 13:33:16;;;;;;;6.40;4.80;;;18.60;41.40;;;;;;4909508;29;20234;-80
2021/03/24 13:35:55;;;;;;;7.43;4.90;;;18.60;41.30;;;;;;4906334;29;20258;-80
2021/03/24 13:38:34;;;;;;;6.93;4.85;;;18.60;41.30;;;;;;4904784;29;20187;-80
2021/03/24 13:41:17;;;;;;;7.07;5.32;;;18.60;41.40;;;;;;4907091;29;20219;-80
2021/03/24 13:43:52;;;;;;;7.28;4.90;;;18.60;41.50;;;;;;4906757;29;20198;-79
2021/03/24 13:46:40;;;;;;;7.18;5.13;;;18.60;41.40;;;;;;4906186;29;20231;-80
2021/03/24 13:49:15;;;;;;;7.03;5.10;;;18.60;41.40;;;;;;4922796;29;20182;-79
2021/03/24 13:51:41;;;;;;;7.53;4.82;;;18.60;41.40;;;;;;4926027;29;20179;-80
2021/03/24 13:54:49;;;;;;;7.45;5.32;;;18.60;41.50;;;;;;4927557;29;20694;-79